KTLH/TLH METAR and TAF weather

Enter ICAO airport designator
Station Type Date Time Source
KTLH METAR 2022/12/01 01:15 UTC NOAA

KTLH 010115Z AUTO 00000KT 1 1/4SM BR SCT002 14/14 A3017 RMK AO2 T01440144


Station Type Date Time Source
KTLH Decoded METAR 2022/12/01 01:15 UTC NOAA

TALLAHASSEE REGIONAL AIRPORT , FL, United States (KTLH) 30-24N 84-21W 16M
Nov 30, 2022 - 08:15 PM EST / 2022.12.01 0115 UTC
Wind: Calm:0
Visibility: 1 1/4 mile(s):0
Sky conditions: partly cloudy
Weather: mist
Temperature: 57.9 F (14.4 C)
Dew Point: 57.9 F (14.4 C)
Relative Humidity: 100%
Pressure (altimeter): 30.17 in. Hg (1021 hPa)
ob: KTLH 010115Z AUTO 00000KT 1 1/4SM BR SCT002 14/14 A3017 RMK AO2 T01440144
cycle: 1

Station Type Date Time Source
KTLH TAF 2022/12/01 01:39 UTC NOAA

TAF
AMD KTLH 010036Z 0101/0124 34005KT 2SM BR SCT005
FM010200 35005G15KT P6SM SKC

Example: see airport list